sensor_id;sensor_type;location;lat;lon;timestamp;P1;durP1;ratioP1;P2;durP2;ratioP2
19940;SDS011;10132;50.864;5.176;2023-05-17T00:00:14;8.33;;;3.33;;
19940;SDS011;10132;50.864;5.176;2023-05-17T00:02:17;8.03;;;3.27;;
19940;SDS011;10132;50.864;5.176;2023-05-17T00:04:20;6.80;;;3.00;;
19940;SDS011;10132;50.864;5.176;2023-05-17T00:06:22;11.00;;;3.33;;
19940;SDS011;10132;50.864;5.176;2023-05-17T00:08:26;6.27;;;3.27;;
19940;SDS011;10132;50.864;5.176;2023-05-17T00:10:28;9.23;;;3.20;;
19940;SDS011;10132;50.864;5.176;2023-05-17T00:12:30;6.60;;;3.13;;
19940;SDS011;10132;50.864;5.176;2023-05-17T00:14:33;9.07;;;3.50;;
19940;SDS011;10132;50.864;5.176;2023-05-17T00:16:35;10.17;;;3.40;;
19940;SDS011;10132;50.864;5.176;2023-05-17T00:18:37;7.57;;;3.43;;
19940;SDS011;10132;50.864;5.176;2023-05-17T00:20:40;7.13;;;3.40;;
19940;SDS011;10132;50.864;5.176;2023-05-17T00:22:42;7.13;;;3.17;;
19940;SDS011;10132;50.864;5.176;2023-05-17T00:24:46;10.37;;;3.40;;
19940;SDS011;10132;50.864;5.176;2023-05-17T00:26:48;6.40;;;3.40;;
19940;SDS011;10132;50.864;5.176;2023-05-17T00:28:51;8.07;;;3.40;;
19940;SDS011;10132;50.864;5.176;2023-05-17T00:30:53;10.03;;;3.60;;
19940;SDS011;10132;50.864;5.176;2023-05-17T00:32:55;14.87;;;7.13;;
19940;SDS011;10132;50.864;5.176;2023-05-17T00:34:59;14.33;;;7.10;;
19940;SDS011;10132;50.864;5.176;2023-05-17T00:37:01;17.67;;;8.67;;
19940;SDS011;10132;50.864;5.176;2023-05-17T00:39:04;15.67;;;7.20;;
19940;SDS011;10132;50.864;5.176;2023-05-17T00:41:09;10.93;;;6.17;;
19940;SDS011;10132;50.864;5.176;2023-05-17T00:43:12;9.77;;;5.00;;
19940;SDS011;10132;50.864;5.176;2023-05-17T00:45:14;7.20;;;4.70;;
19940;SDS011;10132;50.864;5.176;2023-05-17T00:47:17;11.57;;;5.47;;
19940;SDS011;10132;50.864;5.176;2023-05-17T00:49:19;10.07;;;4.87;;
19940;SDS011;10132;50.864;5.176;2023-05-17T00:51:21;14.80;;;6.23;;
19940;SDS011;10132;50.864;5.176;2023-05-17T00:53:24;10.07;;;4.83;;
19940;SDS011;10132;50.864;5.176;2023-05-17T00:55:27;6.47;;;3.77;;
19940;SDS011;10132;50.864;5.176;2023-05-17T00:57:31;9.97;;;4.03;;
19940;SDS011;10132;50.864;5.176;2023-05-17T00:59:34;6.17;;;3.70;;
19940;SDS011;10132;50.864;5.176;2023-05-17T01:01:36;4.53;;;3.00;;
19940;SDS011;10132;50.864;5.176;2023-05-17T01:03:41;7.27;;;3.87;;
19940;SDS011;10132;50.864;5.176;2023-05-17T01:05:44;7.53;;;5.23;;
19940;SDS011;10132;50.864;5.176;2023-05-17T01:07:46;8.10;;;4.60;;
19940;SDS011;10132;50.864;5.176;2023-05-17T01:09:49;11.53;;;6.17;;
19940;SDS011;10132;50.864;5.176;2023-05-17T01:11:53;11.10;;;6.57;;
19940;SDS011;10132;50.864;5.176;2023-05-17T01:14:08;9.27;;;6.50;;
19940;SDS011;10132;50.864;5.176;2023-05-17T01:16:20;12.80;;;6.73;;
19940;SDS011;10132;50.864;5.176;2023-05-17T01:18:30;10.87;;;6.00;;
19940;SDS011;10132;50.864;5.176;2023-05-17T01:20:39;11.13;;;7.20;;
19940;SDS011;10132;50.864;5.176;2023-05-17T01:22:45;14.87;;;7.40;;
19940;SDS011;10132;50.864;5.176;2023-05-17T01:24:56;15.83;;;9.07;;
19940;SDS011;10132;50.864;5.176;2023-05-17T01:27:12;16.80;;;9.13;;
19940;SDS011;10132;50.864;5.176;2023-05-17T01:29:17;12.60;;;7.03;;
19940;SDS011;10132;50.864;5.176;2023-05-17T01:31:24;10.63;;;6.40;;
19940;SDS011;10132;50.864;5.176;2023-05-17T01:33:30;10.23;;;6.27;;
19940;SDS011;10132;50.864;5.176;2023-05-17T01:35:33;10.87;;;4.30;;
19940;SDS011;10132;50.864;5.176;2023-05-17T01:37:36;7.40;;;4.50;;
19940;SDS011;10132;50.864;5.176;2023-05-17T01:39:38;8.20;;;3.97;;
19940;SDS011;10132;50.864;5.176;2023-05-17T01:41:42;6.00;;;4.53;;
19940;SDS011;10132;50.864;5.176;2023-05-17T01:43:54;9.00;;;5.47;;
19940;SDS011;10132;50.864;5.176;2023-05-17T01:46:07;9.63;;;5.20;;
19940;SDS011;10132;50.864;5.176;2023-05-17T01:48:14;11.83;;;5.30;;
19940;SDS011;10132;50.864;5.176;2023-05-17T01:50:23;6.87;;;4.90;;
19940;SDS011;10132;50.864;5.176;2023-05-17T01:52:30;9.03;;;5.10;;
19940;SDS011;10132;50.864;5.176;2023-05-17T01:54:40;5.80;;;4.20;;
19940;SDS011;10132;50.864;5.176;2023-05-17T01:56:47;4.80;;;3.67;;
19940;SDS011;10132;50.864;5.176;2023-05-17T01:58:57;8.67;;;5.50;;
19940;SDS011;10132;50.864;5.176;2023-05-17T02:01:03;10.40;;;4.80;;
19940;SDS011;10132;50.864;5.176;2023-05-17T02:03:10;6.63;;;4.20;;
19940;SDS011;10132;50.864;5.176;2023-05-17T02:05:14;8.77;;;4.57;;
19940;SDS011;10132;50.864;5.176;2023-05-17T02:07:16;9.20;;;4.83;;
19940;SDS011;10132;50.864;5.176;2023-05-17T02:09:18;9.10;;;3.80;;
19940;SDS011;10132;50.864;5.176;2023-05-17T02:11:20;7.80;;;4.27;;
19940;SDS011;10132;50.864;5.176;2023-05-17T02:13:23;8.93;;;4.20;;
19940;SDS011;10132;50.864;5.176;2023-05-17T02:15:27;8.30;;;4.30;;
19940;SDS011;10132;50.864;5.176;2023-05-17T02:17:29;8.50;;;3.93;;
19940;SDS011;10132;50.864;5.176;2023-05-17T02:19:32;8.47;;;3.83;;
19940;SDS011;10132;50.864;5.176;2023-05-17T02:21:34;4.87;;;3.80;;
19940;SDS011;10132;50.864;5.176;2023-05-17T02:23:37;7.57;;;3.80;;
19940;SDS011;10132;50.864;5.176;2023-05-17T02:25:39;4.63;;;3.00;;
19940;SDS011;10132;50.864;5.176;2023-05-17T02:27:41;4.63;;;2.70;;
19940;SDS011;10132;50.864;5.176;2023-05-17T02:29:43;3.63;;;3.00;;
19940;SDS011;10132;50.864;5.176;2023-05-17T02:31:47;3.77;;;3.10;;
19940;SDS011;10132;50.864;5.176;2023-05-17T02:33:49;5.30;;;3.80;;
19940;SDS011;10132;50.864;5.176;2023-05-17T02:35:51;5.77;;;3.40;;
19940;SDS011;10132;50.864;5.176;2023-05-17T02:37:54;6.27;;;3.60;;
19940;SDS011;10132;50.864;5.176;2023-05-17T02:39:56;7.30;;;3.93;;
19940;SDS011;10132;50.864;5.176;2023-05-17T02:41:58;12.10;;;4.00;;
19940;SDS011;10132;50.864;5.176;2023-05-17T02:44:01;6.00;;;3.43;;
19940;SDS011;10132;50.864;5.176;2023-05-17T02:46:03;7.20;;;3.90;;
19940;SDS011;10132;50.864;5.176;2023-05-17T02:48:07;6.43;;;4.27;;
19940;SDS011;10132;50.864;5.176;2023-05-17T02:50:09;6.93;;;3.80;;
19940;SDS011;10132;50.864;5.176;2023-05-17T02:52:12;8.50;;;4.23;;
19940;SDS011;10132;50.864;5.176;2023-05-17T02:54:14;6.30;;;4.17;;
19940;SDS011;10132;50.864;5.176;2023-05-17T02:56:16;9.17;;;4.63;;
19940;SDS011;10132;50.864;5.176;2023-05-17T02:58:20;10.73;;;4.33;;
19940;SDS011;10132;50.864;5.176;2023-05-17T03:00:23;8.33;;;4.23;;
19940;SDS011;10132;50.864;5.176;2023-05-17T03:02:26;7.87;;;4.20;;
19940;SDS011;10132;50.864;5.176;2023-05-17T03:04:30;11.47;;;6.90;;
19940;SDS011;10132;50.864;5.176;2023-05-17T03:06:33;17.07;;;9.30;;
19940;SDS011;10132;50.864;5.176;2023-05-17T03:08:35;15.73;;;8.93;;
19940;SDS011;10132;50.864;5.176;2023-05-17T03:10:37;13.57;;;9.10;;
19940;SDS011;10132;50.864;5.176;2023-05-17T03:12:39;13.13;;;8.90;;
19940;SDS011;10132;50.864;5.176;2023-05-17T03:14:43;12.93;;;8.30;;
19940;SDS011;10132;50.864;5.176;2023-05-17T03:16:46;10.47;;;7.43;;
19940;SDS011;10132;50.864;5.176;2023-05-17T03:18:48;10.63;;;6.93;;
19940;SDS011;10132;50.864;5.176;2023-05-17T03:20:52;9.33;;;6.60;;
19940;SDS011;10132;50.864;5.176;2023-05-17T03:22:54;10.63;;;6.27;;
19940;SDS011;10132;50.864;5.176;2023-05-17T03:24:57;11.40;;;6.87;;
19940;SDS011;10132;50.864;5.176;2023-05-17T03:26:59;10.13;;;6.80;;
19940;SDS011;10132;50.864;5.176;2023-05-17T03:29:01;9.50;;;6.67;;
19940;SDS011;10132;50.864;5.176;2023-05-17T03:31:04;7.77;;;6.53;;
19940;SDS011;10132;50.864;5.176;2023-05-17T03:33:06;7.87;;;5.67;;
19940;SDS011;10132;50.864;5.176;2023-05-17T03:35:09;8.77;;;6.33;;
19940;SDS011;10132;50.864;5.176;2023-05-17T03:37:12;12.97;;;7.83;;
19940;SDS011;10132;50.864;5.176;2023-05-17T03:39:15;14.47;;;6.70;;
19940;SDS011;10132;50.864;5.176;2023-05-17T03:41:17;11.90;;;6.60;;
19940;SDS011;10132;50.864;5.176;2023-05-17T03:43:20;11.53;;;6.33;;
19940;SDS011;10132;50.864;5.176;2023-05-17T03:45:22;10.43;;;5.60;;
19940;SDS011;10132;50.864;5.176;2023-05-17T03:47:25;8.53;;;5.60;;
19940;SDS011;10132;50.864;5.176;2023-05-17T03:49:27;9.40;;;4.90;;
19940;SDS011;10132;50.864;5.176;2023-05-17T03:51:29;9.57;;;5.43;;
19940;SDS011;10132;50.864;5.176;2023-05-17T03:53:33;10.93;;;5.70;;
19940;SDS011;10132;50.864;5.176;2023-05-17T03:55:40;8.67;;;5.20;;
19940;SDS011;10132;50.864;5.176;2023-05-17T03:57:42;12.07;;;6.00;;
19940;SDS011;10132;50.864;5.176;2023-05-17T03:59:46;6.80;;;5.30;;
19940;SDS011;10132;50.864;5.176;2023-05-17T04:01:49;7.43;;;5.23;;
19940;SDS011;10132;50.864;5.176;2023-05-17T04:03:52;10.27;;;5.80;;
19940;SDS011;10132;50.864;5.176;2023-05-17T04:06:00;10.50;;;5.50;;
19940;SDS011;10132;50.864;5.176;2023-05-17T04:08:05;10.10;;;5.50;;
19940;SDS011;10132;50.864;5.176;2023-05-17T04:10:09;10.20;;;5.70;;
19940;SDS011;10132;50.864;5.176;2023-05-17T04:12:11;10.13;;;5.50;;
19940;SDS011;10132;50.864;5.176;2023-05-17T04:14:14;8.77;;;5.60;;
19940;SDS011;10132;50.864;5.176;2023-05-17T04:16:16;7.63;;;5.60;;
19940;SDS011;10132;50.864;5.176;2023-05-17T04:18:18;8.23;;;5.47;;
19940;SDS011;10132;50.864;5.176;2023-05-17T04:20:21;8.83;;;5.03;;
19940;SDS011;10132;50.864;5.176;2023-05-17T04:22:23;9.00;;;4.50;;
19940;SDS011;10132;50.864;5.176;2023-05-17T04:24:25;8.97;;;5.37;;
19940;SDS011;10132;50.864;5.176;2023-05-17T04:26:31;8.57;;;5.40;;
19940;SDS011;10132;50.864;5.176;2023-05-17T04:28:34;7.37;;;4.97;;
19940;SDS011;10132;50.864;5.176;2023-05-17T04:30:36;10.37;;;5.63;;
19940;SDS011;10132;50.864;5.176;2023-05-17T04:32:42;9.10;;;6.17;;
19940;SDS011;10132;50.864;5.176;2023-05-17T04:34:44;6.73;;;5.57;;
19940;SDS011;10132;50.864;5.176;2023-05-17T04:36:48;12.47;;;6.33;;
19940;SDS011;10132;50.864;5.176;2023-05-17T04:38:50;10.77;;;6.40;;
19940;SDS011;10132;50.864;5.176;2023-05-17T04:40:53;11.07;;;7.47;;
19940;SDS011;10132;50.864;5.176;2023-05-17T04:43:03;10.87;;;7.97;;
19940;SDS011;10132;50.864;5.176;2023-05-17T04:45:06;9.23;;;6.43;;
19940;SDS011;10132;50.864;5.176;2023-05-17T04:47:09;11.03;;;6.57;;
19940;SDS011;10132;50.864;5.176;2023-05-17T04:49:12;10.70;;;5.87;;
19940;SDS011;10132;50.864;5.176;2023-05-17T04:51:15;10.17;;;6.17;;
19940;SDS011;10132;50.864;5.176;2023-05-17T04:53:20;10.10;;;6.17;;
19940;SDS011;10132;50.864;5.176;2023-05-17T04:55:23;7.80;;;6.03;;
19940;SDS011;10132;50.864;5.176;2023-05-17T04:57:25;13.10;;;6.97;;
19940;SDS011;10132;50.864;5.176;2023-05-17T04:59:30;10.17;;;6.93;;
19940;SDS011;10132;50.864;5.176;2023-05-17T05:01:32;11.37;;;7.33;;
19940;SDS011;10132;50.864;5.176;2023-05-17T05:03:35;18.33;;;10.13;;
19940;SDS011;10132;50.864;5.176;2023-05-17T05:05:37;47.23;;;25.93;;
19940;SDS011;10132;50.864;5.176;2023-05-17T05:07:40;41.37;;;24.47;;
19940;SDS011;10132;50.864;5.176;2023-05-17T05:09:42;27.00;;;16.67;;
19940;SDS011;10132;50.864;5.176;2023-05-17T05:11:44;22.07;;;13.33;;
19940;SDS011;10132;50.864;5.176;2023-05-17T05:13:47;18.57;;;10.37;;
19940;SDS011;10132;50.864;5.176;2023-05-17T05:15:50;12.20;;;8.73;;
19940;SDS011;10132;50.864;5.176;2023-05-17T05:17:53;11.93;;;8.17;;
19940;SDS011;10132;50.864;5.176;2023-05-17T05:19:55;11.90;;;8.33;;
19940;SDS011;10132;50.864;5.176;2023-05-17T05:21:58;17.37;;;8.50;;
19940;SDS011;10132;50.864;5.176;2023-05-17T05:24:00;19.50;;;8.50;;
19940;SDS011;10132;50.864;5.176;2023-05-17T05:26:03;12.50;;;8.80;;
19940;SDS011;10132;50.864;5.176;2023-05-17T05:28:05;14.17;;;8.63;;
19940;SDS011;10132;50.864;5.176;2023-05-17T05:30:08;12.37;;;8.60;;
19940;SDS011;10132;50.864;5.176;2023-05-17T05:32:13;15.37;;;8.73;;
19940;SDS011;10132;50.864;5.176;2023-05-17T05:34:16;19.83;;;10.30;;
19940;SDS011;10132;50.864;5.176;2023-05-17T05:36:18;17.17;;;9.33;;
19940;SDS011;10132;50.864;5.176;2023-05-17T05:38:20;15.73;;;9.30;;
19940;SDS011;10132;50.864;5.176;2023-05-17T05:40:23;17.33;;;9.30;;
19940;SDS011;10132;50.864;5.176;2023-05-17T05:42:25;16.97;;;9.87;;
19940;SDS011;10132;50.864;5.176;2023-05-17T05:44:28;15.57;;;9.80;;
19940;SDS011;10132;50.864;5.176;2023-05-17T05:46:31;16.80;;;10.13;;
19940;SDS011;10132;50.864;5.176;2023-05-17T05:48:34;19.67;;;9.83;;
19940;SDS011;10132;50.864;5.176;2023-05-17T05:50:40;19.27;;;10.77;;
19940;SDS011;10132;50.864;5.176;2023-05-17T05:52:44;20.10;;;11.00;;
19940;SDS011;10132;50.864;5.176;2023-05-17T05:54:46;21.20;;;10.40;;
19940;SDS011;10132;50.864;5.176;2023-05-17T05:56:48;23.43;;;10.40;;
19940;SDS011;10132;50.864;5.176;2023-05-17T05:58:51;19.27;;;10.20;;
19940;SDS011;10132;50.864;5.176;2023-05-17T06:00:53;20.33;;;10.80;;
19940;SDS011;10132;50.864;5.176;2023-05-17T06:02:56;20.33;;;10.20;;
19940;SDS011;10132;50.864;5.176;2023-05-17T06:05:00;21.17;;;11.20;;
19940;SDS011;10132;50.864;5.176;2023-05-17T06:07:03;24.47;;;10.90;;
19940;SDS011;10132;50.864;5.176;2023-05-17T06:09:05;40.33;;;12.37;;
19940;SDS011;10132;50.864;5.176;2023-05-17T06:11:11;25.93;;;11.90;;
19940;SDS011;10132;50.864;5.176;2023-05-17T06:13:14;42.67;;;13.37;;
19940;SDS011;10132;50.864;5.176;2023-05-17T06:15:16;24.00;;;11.37;;
19940;SDS011;10132;50.864;5.176;2023-05-17T06:17:18;18.17;;;10.60;;
19940;SDS011;10132;50.864;5.176;2023-05-17T06:19:21;18.17;;;10.40;;
19940;SDS011;10132;50.864;5.176;2023-05-17T06:21:24;17.67;;;10.63;;
19940;SDS011;10132;50.864;5.176;2023-05-17T06:23:28;23.67;;;11.00;;
19940;SDS011;10132;50.864;5.176;2023-05-17T06:25:30;21.70;;;10.57;;
19940;SDS011;10132;50.864;5.176;2023-05-17T06:27:36;17.50;;;9.87;;
19940;SDS011;10132;50.864;5.176;2023-05-17T06:29:38;21.67;;;10.13;;
19940;SDS011;10132;50.864;5.176;2023-05-17T06:31:41;16.63;;;9.50;;
19940;SDS011;10132;50.864;5.176;2023-05-17T06:33:43;22.10;;;10.60;;
19940;SDS011;10132;50.864;5.176;2023-05-17T06:35:46;20.13;;;10.07;;
19940;SDS011;10132;50.864;5.176;2023-05-17T06:37:50;23.90;;;9.50;;
19940;SDS011;10132;50.864;5.176;2023-05-17T06:39:54;23.17;;;10.10;;
19940;SDS011;10132;50.864;5.176;2023-05-17T06:42:04;23.23;;;10.03;;
19940;SDS011;10132;50.864;5.176;2023-05-17T06:44:06;18.87;;;9.93;;
19940;SDS011;10132;50.864;5.176;2023-05-17T06:46:08;20.10;;;9.80;;
19940;SDS011;10132;50.864;5.176;2023-05-17T06:48:11;18.47;;;9.80;;
19940;SDS011;10132;50.864;5.176;2023-05-17T06:50:13;18.50;;;9.97;;
19940;SDS011;10132;50.864;5.176;2023-05-17T06:52:18;22.03;;;10.43;;
19940;SDS011;10132;50.864;5.176;2023-05-17T06:54:22;21.70;;;10.60;;
19940;SDS011;10132;50.864;5.176;2023-05-17T06:56:26;19.70;;;10.27;;
19940;SDS011;10132;50.864;5.176;2023-05-17T06:58:29;21.90;;;10.93;;
19940;SDS011;10132;50.864;5.176;2023-05-17T07:00:31;23.27;;;10.37;;
19940;SDS011;10132;50.864;5.176;2023-05-17T07:02:33;22.57;;;9.90;;
19940;SDS011;10132;50.864;5.176;2023-05-17T07:04:36;20.23;;;10.13;;
19940;SDS011;10132;50.864;5.176;2023-05-17T07:06:39;21.90;;;9.80;;
19940;SDS011;10132;50.864;5.176;2023-05-17T07:08:41;19.53;;;9.60;;
19940;SDS011;10132;50.864;5.176;2023-05-17T07:13:25;20.33;;;8.80;;
19940;SDS011;10132;50.864;5.176;2023-05-17T07:15:28;19.00;;;9.30;;
19940;SDS011;10132;50.864;5.176;2023-05-17T07:17:31;18.30;;;9.10;;
19940;SDS011;10132;50.864;5.176;2023-05-17T07:19:33;17.30;;;8.60;;
19940;SDS011;10132;50.864;5.176;2023-05-17T07:21:36;20.87;;;8.60;;
19940;SDS011;10132;50.864;5.176;2023-05-17T07:23:38;17.20;;;7.67;;
19940;SDS011;10132;50.864;5.176;2023-05-17T07:25:40;19.20;;;7.97;;
19940;SDS011;10132;50.864;5.176;2023-05-17T07:27:43;18.43;;;7.03;;
19940;SDS011;10132;50.864;5.176;2023-05-17T07:29:47;18.33;;;6.63;;
19940;SDS011;10132;50.864;5.176;2023-05-17T07:31:49;15.40;;;7.17;;
19940;SDS011;10132;50.864;5.176;2023-05-17T07:33:51;21.10;;;7.47;;
19940;SDS011;10132;50.864;5.176;2023-05-17T07:35:53;16.10;;;5.77;;
19940;SDS011;10132;50.864;5.176;2023-05-17T07:37:56;13.37;;;6.23;;
19940;SDS011;10132;50.864;5.176;2023-05-17T07:39:58;23.37;;;6.83;;
19940;SDS011;10132;50.864;5.176;2023-05-17T07:42:02;14.90;;;5.87;;
19940;SDS011;10132;50.864;5.176;2023-05-17T07:44:04;15.80;;;5.10;;
19940;SDS011;10132;50.864;5.176;2023-05-17T07:46:08;16.27;;;6.70;;
19940;SDS011;10132;50.864;5.176;2023-05-17T07:48:10;15.63;;;5.40;;
19940;SDS011;10132;50.864;5.176;2023-05-17T07:50:12;17.37;;;6.07;;
19940;SDS011;10132;50.864;5.176;2023-05-17T07:52:15;10.00;;;5.30;;
19940;SDS011;10132;50.864;5.176;2023-05-17T07:54:24;15.67;;;6.23;;
19940;SDS011;10132;50.864;5.176;2023-05-17T07:56:27;16.23;;;6.03;;
19940;SDS011;10132;50.864;5.176;2023-05-17T07:58:29;13.90;;;5.73;;
19940;SDS011;10132;50.864;5.176;2023-05-17T08:00:32;17.17;;;5.43;;
19940;SDS011;10132;50.864;5.176;2023-05-17T08:02:35;17.53;;;5.53;;
19940;SDS011;10132;50.864;5.176;2023-05-17T08:04:38;16.47;;;4.90;;
19940;SDS011;10132;50.864;5.176;2023-05-17T08:06:41;11.40;;;4.60;;
19940;SDS011;10132;50.864;5.176;2023-05-17T08:08:44;18.03;;;4.87;;
19940;SDS011;10132;50.864;5.176;2023-05-17T08:10:46;13.77;;;4.67;;
19940;SDS011;10132;50.864;5.176;2023-05-17T08:12:49;10.57;;;4.23;;
19940;SDS011;10132;50.864;5.176;2023-05-17T08:15:05;9.97;;;3.77;;
19940;SDS011;10132;50.864;5.176;2023-05-17T08:17:10;11.43;;;4.13;;
19940;SDS011;10132;50.864;5.176;2023-05-17T08:19:14;13.47;;;4.13;;
19940;SDS011;10132;50.864;5.176;2023-05-17T08:21:16;10.37;;;3.40;;
19940;SDS011;10132;50.864;5.176;2023-05-17T08:23:19;12.87;;;3.60;;
19940;SDS011;10132;50.864;5.176;2023-05-17T08:25:22;10.33;;;4.00;;
19940;SDS011;10132;50.864;5.176;2023-05-17T08:27:24;11.87;;;3.80;;
19940;SDS011;10132;50.864;5.176;2023-05-17T08:29:26;13.00;;;3.37;;
19940;SDS011;10132;50.864;5.176;2023-05-17T08:31:28;10.87;;;3.57;;
19940;SDS011;10132;50.864;5.176;2023-05-17T08:33:31;9.57;;;3.60;;
19940;SDS011;10132;50.864;5.176;2023-05-17T08:35:35;9.90;;;3.30;;
19940;SDS011;10132;50.864;5.176;2023-05-17T08:37:37;10.27;;;3.37;;
19940;SDS011;10132;50.864;5.176;2023-05-17T08:39:39;9.27;;;3.07;;
19940;SDS011;10132;50.864;5.176;2023-05-17T08:41:42;9.60;;;2.53;;
19940;SDS011;10132;50.864;5.176;2023-05-17T08:44:00;10.07;;;2.90;;
19940;SDS011;10132;50.864;5.176;2023-05-17T08:46:03;9.82;;;2.88;;
19940;SDS011;10132;50.864;5.176;2023-05-17T08:48:06;8.47;;;2.53;;
19940;SDS011;10132;50.864;5.176;2023-05-17T08:50:10;9.17;;;2.50;;
19940;SDS011;10132;50.864;5.176;2023-05-17T08:52:15;7.35;;;2.90;;
19940;SDS011;10132;50.864;5.176;2023-05-17T08:54:18;6.55;;;2.40;;
19940;SDS011;10132;50.864;5.176;2023-05-17T08:56:21;8.40;;;2.67;;
19940;SDS011;10132;50.864;5.176;2023-05-17T08:58:27;9.07;;;2.67;;
19940;SDS011;10132;50.864;5.176;2023-05-17T09:00:35;8.93;;;3.08;;
19940;SDS011;10132;50.864;5.176;2023-05-17T09:02:39;9.23;;;2.83;;
19940;SDS011;10132;50.864;5.176;2023-05-17T09:04:42;7.25;;;2.45;;
19940;SDS011;10132;50.864;5.176;2023-05-17T09:06:45;7.63;;;2.78;;
19940;SDS011;10132;50.864;5.176;2023-05-17T09:08:51;9.40;;;2.67;;
19940;SDS011;10132;50.864;5.176;2023-05-17T09:10:54;8.63;;;2.90;;
19940;SDS011;10132;50.864;5.176;2023-05-17T09:12:58;10.93;;;2.95;;
19940;SDS011;10132;50.864;5.176;2023-05-17T09:15:11;15.75;;;4.05;;
19940;SDS011;10132;50.864;5.176;2023-05-17T09:17:17;10.45;;;3.00;;
19940;SDS011;10132;50.864;5.176;2023-05-17T09:19:20;8.30;;;2.65;;
19940;SDS011;10132;50.864;5.176;2023-05-17T09:21:23;8.07;;;2.70;;
19940;SDS011;10132;50.864;5.176;2023-05-17T09:23:26;9.73;;;2.67;;
19940;SDS011;10132;50.864;5.176;2023-05-17T09:25:30;10.02;;;2.85;;
19940;SDS011;10132;50.864;5.176;2023-05-17T09:27:33;12.23;;;2.97;;
19940;SDS011;10132;50.864;5.176;2023-05-17T09:29:36;9.07;;;3.22;;
19940;SDS011;10132;50.864;5.176;2023-05-17T09:31:40;11.35;;;3.33;;
19940;SDS011;10132;50.864;5.176;2023-05-17T09:33:43;12.88;;;2.88;;
19940;SDS011;10132;50.864;5.176;2023-05-17T09:35:46;9.55;;;3.00;;
19940;SDS011;10132;50.864;5.176;2023-05-17T09:37:49;14.13;;;2.85;;
19940;SDS011;10132;50.864;5.176;2023-05-17T09:39:51;8.40;;;2.60;;
19940;SDS011;10132;50.864;5.176;2023-05-17T09:41:57;9.15;;;2.67;;
19940;SDS011;10132;50.864;5.176;2023-05-17T09:44:00;10.25;;;3.20;;
19940;SDS011;10132;50.864;5.176;2023-05-17T09:46:03;10.45;;;3.28;;
19940;SDS011;10132;50.864;5.176;2023-05-17T09:48:10;12.05;;;3.22;;
19940;SDS011;10132;50.864;5.176;2023-05-17T09:50:16;10.45;;;2.92;;
19940;SDS011;10132;50.864;5.176;2023-05-17T09:52:19;9.25;;;2.83;;
19940;SDS011;10132;50.864;5.176;2023-05-17T09:54:22;10.88;;;3.25;;
19940;SDS011;10132;50.864;5.176;2023-05-17T09:56:26;8.88;;;2.60;;
19940;SDS011;10132;50.864;5.176;2023-05-17T09:58:30;9.93;;;2.42;;
19940;SDS011;10132;50.864;5.176;2023-05-17T10:00:33;8.57;;;2.63;;
19940;SDS011;10132;50.864;5.176;2023-05-17T10:02:36;10.53;;;2.70;;
19940;SDS011;10132;50.864;5.176;2023-05-17T10:04:46;9.17;;;2.90;;
19940;SDS011;10132;50.864;5.176;2023-05-17T10:06:50;12.40;;;3.10;;
19940;SDS011;10132;50.864;5.176;2023-05-17T10:08:54;10.03;;;2.77;;
19940;SDS011;10132;50.864;5.176;2023-05-17T10:10:58;10.73;;;2.53;;
19940;SDS011;10132;50.864;5.176;2023-05-17T10:13:05;11.70;;;2.73;;
19940;SDS011;10132;50.864;5.176;2023-05-17T10:15:15;12.83;;;3.20;;
19940;SDS011;10132;50.864;5.176;2023-05-17T10:17:18;18.93;;;5.43;;
19940;SDS011;10132;50.864;5.176;2023-05-17T10:19:21;9.43;;;2.70;;
19940;SDS011;10132;50.864;5.176;2023-05-17T10:21:24;10.68;;;3.10;;
19940;SDS011;10132;50.864;5.176;2023-05-17T10:23:27;8.27;;;2.70;;
19940;SDS011;10132;50.864;5.176;2023-05-17T10:25:31;9.70;;;2.80;;
19940;SDS011;10132;50.864;5.176;2023-05-17T10:27:36;59.50;;;22.88;;
19940;SDS011;10132;50.864;5.176;2023-05-17T10:29:38;12.48;;;3.38;;
19940;SDS011;10132;50.864;5.176;2023-05-17T10:31:44;8.85;;;2.88;;
19940;SDS011;10132;50.864;5.176;2023-05-17T10:33:48;26.73;;;9.05;;
19940;SDS011;10132;50.864;5.176;2023-05-17T10:35:52;10.35;;;2.70;;
19940;SDS011;10132;50.864;5.176;2023-05-17T10:37:56;10.10;;;3.20;;
19940;SDS011;10132;50.864;5.176;2023-05-17T10:39:59;8.20;;;2.70;;
19940;SDS011;10132;50.864;5.176;2023-05-17T10:42:03;9.50;;;3.17;;
19940;SDS011;10132;50.864;5.176;2023-05-17T10:44:08;8.30;;;2.42;;
19940;SDS011;10132;50.864;5.176;2023-05-17T10:46:17;10.77;;;3.72;;
19940;SDS011;10132;50.864;5.176;2023-05-17T10:48:22;9.05;;;2.97;;
19940;SDS011;10132;50.864;5.176;2023-05-17T10:50:30;10.50;;;2.72;;
19940;SDS011;10132;50.864;5.176;2023-05-17T10:52:33;10.75;;;2.80;;
19940;SDS011;10132;50.864;5.176;2023-05-17T10:54:39;10.20;;;2.28;;
19940;SDS011;10132;50.864;5.176;2023-05-17T10:56:46;10.18;;;2.40;;
19940;SDS011;10132;50.864;5.176;2023-05-17T10:59:03;9.35;;;2.13;;
19940;SDS011;10132;50.864;5.176;2023-05-17T11:03:52;7.75;;;1.90;;
19940;SDS011;10132;50.864;5.176;2023-05-17T11:06:13;7.22;;;2.30;;
19940;SDS011;10132;50.864;5.176;2023-05-17T11:08:19;8.55;;;2.33;;
19940;SDS011;10132;50.864;5.176;2023-05-17T11:10:21;7.03;;;2.17;;
19940;SDS011;10132;50.864;5.176;2023-05-17T11:12:31;7.05;;;2.17;;
19940;SDS011;10132;50.864;5.176;2023-05-17T11:14:42;10.52;;;2.17;;
19940;SDS011;10132;50.864;5.176;2023-05-17T11:16:48;7.90;;;2.13;;
19940;SDS011;10132;50.864;5.176;2023-05-17T11:19:05;8.63;;;2.30;;
19940;SDS011;10132;50.864;5.176;2023-05-17T11:21:08;7.93;;;2.17;;
19940;SDS011;10132;50.864;5.176;2023-05-17T11:23:16;7.63;;;2.38;;
19940;SDS011;10132;50.864;5.176;2023-05-17T11:25:19;5.80;;;2.20;;
19940;SDS011;10132;50.864;5.176;2023-05-17T11:27:22;6.75;;;2.55;;
19940;SDS011;10132;50.864;5.176;2023-05-17T11:29:27;11.32;;;2.65;;
19940;SDS011;10132;50.864;5.176;2023-05-17T11:31:32;8.93;;;2.20;;
19940;SDS011;10132;50.864;5.176;2023-05-17T11:33:36;7.97;;;2.25;;
19940;SDS011;10132;50.864;5.176;2023-05-17T11:35:43;7.72;;;1.90;;
19940;SDS011;10132;50.864;5.176;2023-05-17T11:37:46;8.57;;;2.33;;
19940;SDS011;10132;50.864;5.176;2023-05-17T11:40:04;6.95;;;2.00;;
19940;SDS011;10132;50.864;5.176;2023-05-17T11:42:12;6.20;;;2.17;;
19940;SDS011;10132;50.864;5.176;2023-05-17T11:44:28;5.80;;;2.22;;
19940;SDS011;10132;50.864;5.176;2023-05-17T11:46:31;6.00;;;2.33;;
19940;SDS011;10132;50.864;5.176;2023-05-17T11:48:35;5.65;;;2.05;;
19940;SDS011;10132;50.864;5.176;2023-05-17T11:50:38;6.75;;;2.33;;
19940;SDS011;10132;50.864;5.176;2023-05-17T11:52:46;7.32;;;2.50;;
19940;SDS011;10132;50.864;5.176;2023-05-17T11:54:53;9.48;;;2.00;;
19940;SDS011;10132;50.864;5.176;2023-05-17T11:57:00;6.60;;;1.90;;
19940;SDS011;10132;50.864;5.176;2023-05-17T11:59:04;8.88;;;2.20;;
19940;SDS011;10132;50.864;5.176;2023-05-17T12:01:07;9.75;;;2.42;;
19940;SDS011;10132;50.864;5.176;2023-05-17T12:03:16;6.78;;;2.10;;
19940;SDS011;10132;50.864;5.176;2023-05-17T12:05:18;9.50;;;2.50;;
19940;SDS011;10132;50.864;5.176;2023-05-17T12:07:23;10.93;;;2.35;;
19940;SDS011;10132;50.864;5.176;2023-05-17T12:09:27;9.55;;;2.20;;
19940;SDS011;10132;50.864;5.176;2023-05-17T12:11:31;6.13;;;2.30;;
19940;SDS011;10132;50.864;5.176;2023-05-17T12:13:35;8.90;;;2.22;;
19940;SDS011;10132;50.864;5.176;2023-05-17T12:15:43;6.40;;;2.10;;
19940;SDS011;10132;50.864;5.176;2023-05-17T12:17:48;8.45;;;2.40;;
19940;SDS011;10132;50.864;5.176;2023-05-17T12:19:53;7.13;;;2.30;;
19940;SDS011;10132;50.864;5.176;2023-05-17T12:22:04;7.10;;;2.03;;
19940;SDS011;10132;50.864;5.176;2023-05-17T12:24:08;8.05;;;2.20;;